Time;durP1;ratioP1;P1;durP2;ratioP2;P2;SDS_P1;SDS_P2;PMS_P1;PMS_P2;Temp;Humidity;BMP_temperature;BMP_pressure;BME280_temperature;BME280_humidity;BME280_pressure;Samples;Min_cycle;Max_cycle;Signal;HPM_P1;HPM_P2
2023/06/15 00:01:19;;;;;;;;;;;12.80;97.20;;;;;;5025732;28;19913;-64
2023/06/15 00:03:45;;;;;;;;;;;12.90;96.10;;;;;;5010830;28;19920;-64
2023/06/15 00:06:12;;;;;;;;;;;13.00;95.70;;;;;;5011626;28;20358;-63
2023/06/15 00:08:39;;;;;;;;;;;13.10;95.60;;;;;;5014449;28;19916;-63
2023/06/15 00:11:05;;;;;;;;;;;13.30;95.40;;;;;;5011179;28;19936;-63
2023/06/15 00:13:32;;;;;;;;;;;13.30;95.20;;;;;;5011592;28;19910;-64
2023/06/15 00:15:59;;;;;;;;;;;13.40;95.30;;;;;;5012433;28;19916;-63
2023/06/15 00:18:26;;;;;;;;;;;13.40;95.10;;;;;;5018303;28;19967;-65
2023/06/15 00:20:55;;;;;;;;;;;13.60;94.90;;;;;;5032921;28;19910;-64
2023/06/15 00:23:26;;;;;;;;;;;13.60;94.70;;;;;;5015822;28;19913;-62
2023/06/15 00:25:53;;;;;;;;;;;13.60;94.40;;;;;;5014493;28;19917;-64
2023/06/15 00:28:20;;;;;;;;;;;13.70;93.90;;;;;;5028784;28;20442;-64
2023/06/15 00:30:47;;;;;;;;;;;13.80;94.20;;;;;;5002627;28;19918;-64
2023/06/15 00:33:13;;;;;;;;;;;13.90;94.30;;;;;;4996737;28;20333;-64
2023/06/15 00:35:40;;;;;;;;;;;14.00;93.60;;;;;;5013025;28;19952;-64
2023/06/15 00:38:06;;;;;;;;;;;14.10;93.70;;;;;;5014598;28;19910;-64
2023/06/15 00:40:33;;;;;;;;;;;14.10;93.80;;;;;;5032893;28;19913;-64
2023/06/15 00:43:08;;;;;;;;;;;14.20;93.20;;;;;;5109972;27;20294;-63
2023/06/15 00:45:35;;;;;;;;;;;14.20;93.30;;;;;;5109820;28;19965;-63
2023/06/15 00:48:02;;;;;;;;;;;14.20;93.00;;;;;;5108111;28;19908;-64
2023/06/15 00:50:31;;;;;;;;;;;14.30;92.90;;;;;;5088933;28;19916;-64
2023/06/15 00:53:00;;;;;;;;;;;14.30;92.90;;;;;;5088517;28;19908;-63
2023/06/15 00:55:27;;;;;;;;;;;14.40;93.00;;;;;;5089294;28;19912;-63
2023/06/15 00:57:54;;;;;;;;;;;14.40;92.60;;;;;;5088398;28;19905;-65
2023/06/15 01:00:21;;;;;;;;;;;14.50;92.80;;;;;;5088161;28;20387;-65
2023/06/15 01:02:49;;;;;;;;;;;14.60;92.80;;;;;;5089174;28;19971;-64
2023/06/15 01:05:16;;;;;;;;;;;14.60;92.80;;;;;;5089269;28;19909;-65
2023/06/15 01:07:50;;;;;;;;;;;14.70;92.80;;;;;;5088675;28;19919;-66
2023/06/15 01:10:18;;;;;;;;;;;14.80;92.80;;;;;;5069035;28;19916;-66
2023/06/15 01:12:45;;;;;;;;;;;14.80;92.40;;;;;;5069691;28;19996;-65
2023/06/15 01:15:12;;;;;;;;;;;14.90;92.60;;;;;;5088537;28;19966;-64
2023/06/15 01:17:44;;;;;;;;;;;15.00;92.20;;;;;;5092210;28;20365;-64
2023/06/15 01:20:16;;;;;;;;;;;15.00;92.50;;;;;;5089339;28;19908;-63
2023/06/15 01:22:49;;;;;;;;;;;15.10;92.70;;;;;;5088970;28;19916;-65
2023/06/15 01:25:26;;;;;;;;;;;15.20;92.30;;;;;;5093704;28;19912;-65
2023/06/15 01:28:01;;;;;;;;;;;15.20;91.80;;;;;;5088378;28;20015;-65
2023/06/15 01:30:28;;;;;;;;;;;15.20;92.00;;;;;;5088072;28;19924;-64
2023/06/15 01:32:55;;;;;;;;;;;15.40;92.00;;;;;;5087088;28;19917;-63
2023/06/15 01:35:21;;;;;;;;;;;15.50;92.00;;;;;;5087979;28;19908;-63
2023/06/15 01:37:48;;;;;;;;;;;15.60;92.30;;;;;;5091747;28;19912;-64
2023/06/15 01:40:15;;;;;;;;;;;15.60;91.70;;;;;;5069248;28;19909;-64
2023/06/15 01:42:42;;;;;;;;;;;15.60;91.40;;;;;;5090454;28;19929;-63
2023/06/15 01:45:09;;;;;;;;;;;15.60;91.40;;;;;;5108375;28;20003;-65
2023/06/15 01:47:37;;;;;;;;;;;15.60;91.50;;;;;;5100026;28;19918;-64
2023/06/15 01:50:04;;;;;;;;;;;15.80;91.60;;;;;;5089272;28;20281;-65
2023/06/15 01:52:30;;;;;;;;;;;15.90;91.50;;;;;;5095942;28;20353;-66
2023/06/15 01:54:57;;;;;;;;;;;16.00;91.20;;;;;;5095061;28;19930;-66
2023/06/15 01:57:24;;;;;;;;;;;16.10;91.00;;;;;;5094473;28;20546;-65
2023/06/15 01:59:54;;;;;;;;;;;16.20;91.10;;;;;;5079999;28;19908;-67
2023/06/15 02:02:23;;;;;;;;;;;16.30;90.90;;;;;;5094035;28;20021;-65
2023/06/15 02:04:50;;;;;;;;;;;16.30;90.60;;;;;;5095027;28;19908;-64
2023/06/15 02:07:16;;;;;;;;;;;16.40;90.90;;;;;;5094798;28;19915;-66
2023/06/15 02:09:43;;;;;;;;;;;16.40;90.90;;;;;;5078558;28;20003;-64
2023/06/15 02:12:10;;;;;;;;;;;16.40;90.80;;;;;;5074067;28;19916;-65
2023/06/15 02:14:36;;;;;;;;;;;16.40;91.10;;;;;;5074626;28;20374;-64
2023/06/15 02:17:03;;;;;;;;;;;16.40;90.90;;;;;;5074579;28;19909;-65
2023/06/15 02:19:30;;;;;;;;;;;16.40;90.90;;;;;;5074824;28;20376;-65
2023/06/15 02:21:57;;;;;;;;;;;16.40;90.80;;;;;;5074435;28;19912;-63
2023/06/15 02:24:24;;;;;;;;;;;16.40;90.90;;;;;;5074272;28;20003;-63
2023/06/15 02:26:51;;;;;;;;;;;16.40;90.90;;;;;;5074155;28;19909;-65
2023/06/15 02:29:17;;;;;;;;;;;16.50;90.50;;;;;;5085456;28;20010;-65
2023/06/15 02:31:44;;;;;;;;;;;16.60;90.80;;;;;;5082461;28;19958;-64
2023/06/15 02:34:11;;;;;;;;;;;16.90;90.60;;;;;;5073885;28;19908;-63
2023/06/15 02:36:37;;;;;;;;;;;17.00;90.20;;;;;;5073851;28;19909;-63
2023/06/15 02:39:04;;;;;;;;;;;16.90;90.30;;;;;;5072986;28;19963;-64
2023/06/15 02:41:31;;;;;;;;;;;16.90;90.40;;;;;;5075414;28;19921;-66
2023/06/15 02:43:57;;;;;;;;;;;17.00;90.30;;;;;;5093698;28;19998;-63
2023/06/15 02:46:24;;;;;;;;;;;17.10;90.40;;;;;;5093870;28;19919;-63
2023/06/15 02:48:51;;;;;;;;;;;17.00;90.10;;;;;;5093382;28;19916;-64
2023/06/15 02:51:19;;;;;;;;;;;17.00;90.30;;;;;;5093022;28;19916;-62
2023/06/15 02:53:49;;;;;;;;;;;17.10;90.30;;;;;;5093741;28;19915;-65
2023/06/15 02:56:19;;;;;;;;;;;17.30;90.10;;;;;;5093583;28;20284;-65
2023/06/15 02:58:47;;;;;;;;;;;17.60;89.60;;;;;;5093683;28;19999;-64
2023/06/15 03:01:17;;;;;;;;;;;18.00;89.40;;;;;;5090000;28;20019;-65
2023/06/15 03:03:44;;;;;;;;;;;18.60;87.20;;;;;;5093361;28;20276;-62
2023/06/15 03:06:11;;;;;;;;;;;19.20;85.20;;;;;;5092906;28;19908;-61
2023/06/15 03:08:38;;;;;;;;;;;19.60;84.20;;;;;;5075076;28;19955;-63
2023/06/15 03:11:04;;;;;;;;;;;19.80;83.30;;;;;;5090091;28;19958;-65
2023/06/15 03:13:31;;;;;;;;;;;19.60;83.40;;;;;;5093224;28;19965;-63
2023/06/15 03:16:01;;;;;;;;;;;19.30;83.50;;;;;;5089052;28;20388;-63
2023/06/15 03:18:29;;;;;;;;;;;19.30;83.90;;;;;;5080018;28;19919;-63
2023/06/15 03:20:57;;;;;;;;;;;19.40;83.40;;;;;;5111751;28;20250;-63
2023/06/15 03:23:24;;;;;;;;;;;19.70;83.40;;;;;;5108294;28;19912;-64
2023/06/15 03:25:52;;;;;;;;;;;20.60;81.10;;;;;;5095801;28;19908;-63
2023/06/15 03:28:27;;;;;;;;;;;21.60;78.10;;;;;;5092893;28;19919;-65
2023/06/15 03:30:56;;;;;;;;;;;22.30;76.10;;;;;;5091908;28;19915;-64
2023/06/15 03:33:23;;;;;;;;;;;22.60;75.60;;;;;;5093026;28;19969;-63
2023/06/15 03:35:50;;;;;;;;;;;23.80;72.70;;;;;;5092880;28;19908;-64
2023/06/15 03:38:16;;;;;;;;;;;24.90;70.10;;;;;;5093346;28;20276;-62
2023/06/15 03:40:43;;;;;;;;;;;26.10;67.20;;;;;;5092448;28;19908;-64
2023/06/15 03:43:10;;;;;;;;;;;26.90;64.70;;;;;;5092115;28;19961;-62
2023/06/15 03:45:37;;;;;;;;;;;27.70;62.80;;;;;;5092649;28;20380;-62
2023/06/15 03:48:04;;;;;;;;;;;28.00;62.30;;;;;;5092925;28;19936;-65
2023/06/15 03:50:31;;;;;;;;;;;28.60;60.50;;;;;;5092612;28;19908;-65
2023/06/15 03:52:58;;;;;;;;;;;29.40;58.50;;;;;;5091365;28;19953;-63
2023/06/15 03:55:25;;;;;;;;;;;30.00;56.90;;;;;;5092309;28;19961;-65
2023/06/15 03:57:51;;;;;;;;;;;29.60;56.40;;;;;;5092505;28;20390;-62
2023/06/15 04:00:18;;;;;;;;;;;29.50;56.60;;;;;;5092526;28;19931;-64
2023/06/15 04:02:45;;;;;;;;;;;29.60;55.40;;;;;;5091220;28;19917;-64
2023/06/15 04:05:12;;;;;;;;;;;29.20;56.00;;;;;;5092368;28;19912;-63
2023/06/15 04:07:39;;;;;;;;;;;28.40;56.40;;;;;;5092483;28;20360;-64
2023/06/15 04:10:08;;;;;;;;;;;27.30;57.30;;;;;;5092878;28;20266;-63
2023/06/15 04:12:34;;;;;;;;;;;26.00;58.80;;;;;;5097734;28;20449;-63
2023/06/15 04:15:01;;;;;;;;;;;24.90;60.50;;;;;;5112428;28;19928;-64
2023/06/15 04:17:28;;;;;;;;;;;23.80;62.20;;;;;;5096292;28;20352;-62
2023/06/15 04:19:55;;;;;;;;;;;22.70;63.80;;;;;;5092294;28;19908;-65
2023/06/15 04:22:21;;;;;;;;;;;21.70;65.30;;;;;;5091191;28;20372;-63
2023/06/15 04:24:48;;;;;;;;;;;21.00;67.60;;;;;;5088994;28;19916;-65
2023/06/15 04:27:18;;;;;;;;;;;20.50;69.00;;;;;;5088753;28;19918;-63
2023/06/15 04:29:49;;;;;;;;;;;20.10;69.80;;;;;;5090779;28;19908;-63
2023/06/15 04:32:17;;;;;;;;;;;19.80;70.00;;;;;;5090181;28;20326;-64
2023/06/15 04:34:45;;;;;;;;;;;19.50;70.70;;;;;;5091304;28;19943;-66
2023/06/15 04:37:12;;;;;;;;;;;19.40;71.70;;;;;;5090768;28;20423;-66
2023/06/15 04:39:39;;;;;;;;;;;19.30;72.30;;;;;;5091117;28;19943;-66
2023/06/15 04:42:09;;;;;;;;;;;19.30;72.30;;;;;;5091001;28;20281;-65
2023/06/15 04:44:35;;;;;;;;;;;19.10;72.50;;;;;;5090551;28;19909;-65
2023/06/15 04:47:04;;;;;;;;;;;19.00;72.90;;;;;;5090838;28;19908;-62
2023/06/15 04:49:31;;;;;;;;;;;19.00;72.90;;;;;;5086936;28;19966;-65
2023/06/15 04:51:58;;;;;;;;;;;19.00;73.20;;;;;;5089823;28;20010;-63
2023/06/15 04:54:25;;;;;;;;;;;19.10;73.30;;;;;;5090699;28;19969;-63
2023/06/15 04:56:51;;;;;;;;;;;19.00;73.20;;;;;;5090455;28;19916;-64
2023/06/15 04:59:18;;;;;;;;;;;19.10;72.90;;;;;;5072362;28;19994;-64
2023/06/15 05:01:45;;;;;;;;;;;19.20;73.60;;;;;;5090400;28;19977;-66
2023/06/15 05:04:11;;;;;;;;;;;19.30;73.00;;;;;;5090666;28;19908;-63
2023/06/15 05:06:38;;;;;;;;;;;19.30;73.20;;;;;;5091412;28;20428;-63
2023/06/15 05:09:05;;;;;;;;;;;19.30;73.90;;;;;;5091060;28;19914;-64
2023/06/15 05:11:31;;;;;;;;;;;19.40;73.20;;;;;;5091475;28;19912;-63
2023/06/15 05:13:58;;;;;;;;;;;19.50;73.50;;;;;;5091081;28;19911;-64
2023/06/15 05:16:25;;;;;;;;;;;19.50;73.70;;;;;;5091017;28;20009;-63
2023/06/15 05:18:52;;;;;;;;;;;19.50;73.50;;;;;;5090840;28;19919;-65
2023/06/15 05:21:19;;;;;;;;;;;19.50;73.20;;;;;;5089902;28;19912;-64
2023/06/15 05:23:46;;;;;;;;;;;19.40;73.40;;;;;;5091324;28;20340;-64
2023/06/15 05:26:13;;;;;;;;;;;19.30;73.60;;;;;;5073424;28;20265;-62
2023/06/15 05:28:39;;;;;;;;;;;19.20;74.80;;;;;;5092614;28;19912;-62
2023/06/15 05:31:08;;;;;;;;;;;19.30;73.60;;;;;;5095787;28;20360;-62
2023/06/15 05:33:36;;;;;;;;;;;19.30;75.60;;;;;;5095534;28;19912;-63
2023/06/15 05:36:02;;;;;;;;;;;19.40;74.10;;;;;;5095938;28;19916;-63
2023/06/15 05:38:29;;;;;;;;;;;19.50;74.00;;;;;;5095848;28;19912;-62
2023/06/15 05:40:56;;;;;;;;;;;19.50;75.10;;;;;;5095406;28;19912;-62
2023/06/15 05:43:23;;;;;;;;;;;19.80;74.60;;;;;;5095823;28;20006;-63
2023/06/15 05:45:50;;;;;;;;;;;19.90;74.00;;;;;;5095995;28;19915;-63
2023/06/15 05:48:16;;;;;;;;;;;20.10;73.00;;;;;;5095875;28;19908;-62
2023/06/15 05:50:43;;;;;;;;;;;20.00;72.70;;;;;;5094083;28;19908;-62
2023/06/15 05:53:09;;;;;;;;;;;19.90;73.10;;;;;;5086781;28;19933;-62
2023/06/15 05:55:36;;;;;;;;;;;19.90;73.80;;;;;;5075861;28;19981;-63
2023/06/15 05:58:03;;;;;;;;;;;19.90;73.30;;;;;;5086011;28;19919;-63
2023/06/15 06:00:31;;;;;;;;;;;20.10;73.70;;;;;;5094927;28;19912;-62
2023/06/15 06:02:58;;;;;;;;;;;20.30;72.00;;;;;;5092158;28;19928;-62
2023/06/15 06:05:25;;;;;;;;;;;20.60;71.70;;;;;;5092975;28;19944;-63
2023/06/15 06:07:51;;;;;;;;;;;21.10;72.10;;;;;;5092649;28;20020;-62
2023/06/15 06:10:19;;;;;;;;;;;21.60;71.00;;;;;;5094392;28;19904;-62
2023/06/15 06:12:46;;;;;;;;;;;21.80;70.00;;;;;;5094388;28;19908;-62
2023/06/15 06:15:12;;;;;;;;;;;21.60;70.10;;;;;;5093340;28;19912;-62
2023/06/15 06:17:39;;;;;;;;;;;20.70;70.90;;;;;;5088309;28;19916;-62
2023/06/15 06:20:06;;;;;;;;;;;20.20;72.50;;;;;;5073911;28;19923;-60
2023/06/15 06:22:33;;;;;;;;;;;19.90;73.40;;;;;;5081859;28;19917;-63
2023/06/15 06:24:59;;;;;;;;;;;19.40;74.50;;;;;;5073664;28;19909;-62
2023/06/15 06:27:26;;;;;;;;;;;18.90;75.30;;;;;;5074064;28;20392;-62
2023/06/15 06:29:53;;;;;;;;;;;18.60;77.00;;;;;;5084044;28;20086;-65
2023/06/15 06:32:20;;;;;;;;;;;18.30;77.40;;;;;;5093574;28;19923;-62
2023/06/15 06:34:46;;;;;;;;;;;18.10;78.70;;;;;;5079853;28;19912;-62
2023/06/15 06:37:13;;;;;;;;;;;17.80;78.30;;;;;;5093883;28;19912;-63
2023/06/15 06:39:40;;;;;;;;;;;17.60;78.80;;;;;;5073660;28;19913;-63
2023/06/15 06:42:07;;;;;;;;;;;17.40;78.90;;;;;;5075331;28;19959;-61
2023/06/15 06:44:33;;;;;;;;;;;17.20;79.80;;;;;;5087886;28;19919;-61
2023/06/15 06:47:01;;;;;;;;;;;17.00;79.80;;;;;;5085977;28;19916;-62
2023/06/15 06:49:28;;;;;;;;;;;17.00;80.50;;;;;;5092847;28;19957;-62
2023/06/15 06:51:54;;;;;;;;;;;16.80;80.70;;;;;;5102378;28;19908;-62
2023/06/15 06:54:21;;;;;;;;;;;16.70;81.10;;;;;;5098095;28;20395;-63
2023/06/15 06:56:47;;;;;;;;;;;16.60;81.70;;;;;;5092234;28;19955;-61
2023/06/15 06:59:14;;;;;;;;;;;16.50;81.90;;;;;;5092647;28;19958;-61
2023/06/15 07:01:43;;;;;;;;;;;16.30;82.50;;;;;;5096067;28;20015;-66
2023/06/15 07:04:10;;;;;;;;;;;16.30;82.50;;;;;;5097117;28;19908;-64
2023/06/15 07:06:36;;;;;;;;;;;16.20;82.80;;;;;;5086922;28;19950;-65
2023/06/15 07:09:03;;;;;;;;;;;16.10;83.50;;;;;;5092550;28;19984;-64
2023/06/15 07:11:30;;;;;;;;;;;16.00;83.50;;;;;;5088709;28;20360;-63
2023/06/15 07:13:56;;;;;;;;;;;15.90;83.80;;;;;;5078736;28;19924;-63
2023/06/15 07:16:23;;;;;;;;;;;15.80;83.90;;;;;;5088627;28;19920;-64
2023/06/15 07:18:50;;;;;;;;;;;15.80;84.50;;;;;;5093336;28;19920;-64
2023/06/15 07:21:16;;;;;;;;;;;15.60;84.50;;;;;;5091898;28;19912;-64
2023/06/15 07:23:43;;;;;;;;;;;15.60;84.90;;;;;;5076217;28;20281;-65
2023/06/15 07:26:10;;;;;;;;;;;15.60;85.20;;;;;;5081789;28;20376;-63
2023/06/15 07:28:36;;;;;;;;;;;15.50;85.70;;;;;;5093251;28;19908;-65
2023/06/15 07:31:03;;;;;;;;;;;15.30;85.60;;;;;;5093054;28;20360;-64
2023/06/15 07:33:29;;;;;;;;;;;15.30;85.70;;;;;;5084474;28;19912;-65
2023/06/15 07:35:56;;;;;;;;;;;15.30;86.00;;;;;;5088175;28;19961;-64
2023/06/15 07:38:23;;;;;;;;;;;15.30;86.60;;;;;;5092780;28;20460;-64
2023/06/15 07:40:50;;;;;;;;;;;15.20;86.60;;;;;;5093206;28;20393;-64
2023/06/15 07:43:16;;;;;;;;;;;15.10;86.70;;;;;;5085693;28;19920;-65
2023/06/15 07:45:45;;;;;;;;;;;15.10;86.90;;;;;;5091463;28;19915;-64
2023/06/15 07:48:12;;;;;;;;;;;15.00;87.30;;;;;;5092037;28;19912;-64
2023/06/15 07:50:38;;;;;;;;;;;15.00;87.50;;;;;;5092618;28;19907;-65
2023/06/15 07:53:05;;;;;;;;;;;14.90;87.70;;;;;;5087158;28;19919;-65
2023/06/15 07:55:32;;;;;;;;;;;14.90;88.00;;;;;;5087504;28;19913;-64
2023/06/15 07:57:59;;;;;;;;;;;14.80;88.30;;;;;;5091071;28;19912;-65
2023/06/15 08:00:25;;;;;;;;;;;14.70;88.50;;;;;;5092791;28;20003;-63
2023/06/15 08:02:52;;;;;;;;;;;14.70;88.50;;;;;;5090870;28;20042;-65
2023/06/15 08:05:19;;;;;;;;;;;14.70;88.80;;;;;;5089845;28;19959;-64
2023/06/15 08:07:46;;;;;;;;;;;14.60;89.00;;;;;;5080538;28;20369;-65
2023/06/15 08:10:13;;;;;;;;;;;14.50;89.30;;;;;;5092770;28;19909;-64
2023/06/15 08:12:40;;;;;;;;;;;14.50;89.70;;;;;;5090420;28;19951;-63
2023/06/15 08:15:07;;;;;;;;;;;14.40;90.00;;;;;;5092126;28;19916;-64
2023/06/15 08:17:33;;;;;;;;;;;14.40;89.90;;;;;;5077217;28;19956;-65
2023/06/15 08:20:00;;;;;;;;;;;14.40;90.10;;;;;;5091654;28;19959;-65
2023/06/15 08:22:27;;;;;;;;;;;14.30;90.20;;;;;;5090729;28;20011;-64
2023/06/15 08:24:54;;;;;;;;;;;14.30;90.30;;;;;;5090373;28;20380;-64
2023/06/15 08:27:21;;;;;;;;;;;14.20;90.30;;;;;;5075633;28;19919;-63
2023/06/15 08:29:48;;;;;;;;;;;14.20;90.50;;;;;;5091495;28;20319;-65
2023/06/15 08:32:15;;;;;;;;;;;14.10;90.60;;;;;;5073584;28;19913;-64
2023/06/15 08:34:42;;;;;;;;;;;14.00;90.70;;;;;;5092664;28;19916;-65
2023/06/15 08:37:11;;;;;;;;;;;14.00;90.90;;;;;;5086558;28;20381;-64
2023/06/15 08:39:38;;;;;;;;;;;14.00;91.00;;;;;;5085739;28;19916;-64
2023/06/15 08:42:06;;;;;;;;;;;13.90;91.40;;;;;;5083131;28;20377;-65
2023/06/15 08:44:33;;;;;;;;;;;13.90;91.50;;;;;;5091667;28;19912;-64
2023/06/15 08:47:03;;;;;;;;;;;13.80;91.80;;;;;;5091932;28;19908;-64
2023/06/15 08:49:31;;;;;;;;;;;13.70;92.20;;;;;;5073813;28;20003;-64
2023/06/15 08:52:00;;;;;;;;;;;13.70;92.50;;;;;;5070710;28;19917;-64
2023/06/15 08:54:28;;;;;;;;;;;13.70;92.70;;;;;;5089738;28;20353;-65
2023/06/15 08:56:55;;;;;;;;;;;13.60;92.80;;;;;;5078564;28;19919;-65
2023/06/15 08:59:22;;;;;;;;;;;13.50;93.20;;;;;;5074668;28;19909;-65
2023/06/15 09:01:51;;;;;;;;;;;13.40;93.10;;;;;;5072475;28;20019;-64
2023/06/15 09:04:18;;;;;;;;;;;13.40;93.10;;;;;;5090726;28;19996;-64
2023/06/15 09:06:44;;;;;;;;;;;13.40;93.50;;;;;;5095956;28;19999;-65
2023/06/15 09:09:12;;;;;;;;;;;13.30;93.60;;;;;;5095635;28;19912;-64
2023/06/15 09:11:46;;;;;;;;;;;13.30;94.10;;;;;;5091377;28;19969;-64
2023/06/15 09:14:12;;;;;;;;;;;13.30;94.30;;;;;;5090965;28;20272;-63
2023/06/15 09:16:40;;;;;;;;;;;13.20;94.30;;;;;;5084110;28;19912;-63
2023/06/15 09:19:16;;;;;;;;;;;13.20;94.40;;;;;;5081077;28;19928;-65
2023/06/15 09:21:43;;;;;;;;;;;13.10;94.60;;;;;;5079823;28;19920;-63
2023/06/15 09:24:10;;;;;;;;;;;13.10;94.70;;;;;;5082832;28;20006;-63
2023/06/15 09:26:39;;;;;;;;;;;13.10;95.00;;;;;;5095361;28;19912;-64
2023/06/15 09:29:09;;;;;;;;;;;13.00;95.20;;;;;;5092472;28;20057;-63
2023/06/15 09:31:37;;;;;;;;;;;12.90;95.50;;;;;;5094579;28;20371;-64
2023/06/15 09:34:10;;;;;;;;;;;13.00;95.90;;;;;;5080718;28;19913;-64
2023/06/15 09:36:38;;;;;;;;;;;12.90;96.20;;;;;;5094991;28;19920;-62
2023/06/15 09:39:05;;;;;;;;;;;12.80;96.30;;;;;;5081216;28;19908;-63
2023/06/15 09:41:33;;;;;;;;;;;12.80;96.20;;;;;;5079300;28;20062;-64
2023/06/15 09:44:01;;;;;;;;;;;12.80;96.50;;;;;;5093434;28;19955;-62
2023/06/15 09:46:28;;;;;;;;;;;12.70;96.70;;;;;;5095333;28;19951;-63
2023/06/15 09:48:55;;;;;;;;;;;12.70;96.50;;;;;;5082239;28;19914;-63
2023/06/15 09:51:27;;;;;;;;;;;12.70;96.70;;;;;;5081149;28;19915;-65
2023/06/15 09:53:54;;;;;;;;;;;12.60;97.00;;;;;;5075259;28;19959;-63
2023/06/15 09:56:24;;;;;;;;;;;12.60;97.30;;;;;;5075471;28;19916;-63
2023/06/15 09:58:50;;;;;;;;;;;12.60;97.10;;;;;;5079544;28;19920;-65
2023/06/15 10:01:18;;;;;;;;;;;12.60;97.40;;;;;;5074741;28;19951;-65
2023/06/15 10:03:52;;;;;;;;;;;12.50;97.70;;;;;;5077061;28;20426;-63
2023/06/15 10:06:20;;;;;;;;;;;12.50;97.40;;;;;;5074039;28;19913;-64
2023/06/15 10:08:51;;;;;;;;;;;12.40;97.70;;;;;;5081374;28;20362;-63
2023/06/15 10:11:20;;;;;;;;;;;12.40;98.20;;;;;;5073802;28;20007;-64
2023/06/15 10:13:52;;;;;;;;;;;12.40;97.90;;;;;;5074257;28;19917;-65
2023/06/15 10:16:20;;;;;;;;;;;12.30;98.20;;;;;;5082853;28;20396;-63
2023/06/15 10:18:49;;;;;;;;;;;12.30;97.70;;;;;;5075055;28;19979;-62
2023/06/15 10:21:16;;;;;;;;;;;12.20;97.80;;;;;;5080837;28;20321;-63
2023/06/15 10:23:43;;;;;;;;;;;12.30;97.70;;;;;;5093010;28;19965;-63
2023/06/15 10:26:10;;;;;;;;;;;12.30;97.50;;;;;;5092877;28;19912;-64
2023/06/15 10:28:42;;;;;;;;;;;12.30;97.50;;;;;;5079466;28;20281;-64
2023/06/15 10:31:15;;;;;;;;;;;12.30;97.50;;;;;;5059527;28;19912;-61
2023/06/15 10:33:45;;;;;;;;;;;12.30;97.40;;;;;;5078228;28;19912;-61
2023/06/15 10:36:12;;;;;;;;;;;12.30;97.30;;;;;;5091142;28;19919;-60
2023/06/15 10:38:43;;;;;;;;;;;12.40;97.60;;;;;;5089853;28;20376;-64
2023/06/15 10:41:10;;;;;;;;;;;12.40;97.20;;;;;;5090843;28;19931;-63
2023/06/15 10:43:36;;;;;;;;;;;12.40;97.40;;;;;;5092747;28;19920;-63
2023/06/15 10:46:03;;;;;;;;;;;12.40;97.20;;;;;;5092670;28;20391;-63
2023/06/15 10:48:30;;;;;;;;;;;12.40;97.30;;;;;;5084558;28;19917;-64
2023/06/15 10:51:03;;;;;;;;;;;12.40;97.30;;;;;;5090491;28;19919;-65
2023/06/15 10:53:35;;;;;;;;;;;12.40;97.20;;;;;;5088866;28;19999;-63
2023/06/15 10:56:02;;;;;;;;;;;12.40;97.30;;;;;;5085418;28;19916;-63
2023/06/15 10:58:30;;;;;;;;;;;12.30;97.50;;;;;;5084249;28;19909;-64
2023/06/15 11:01:11;;;;;;;;;;;12.40;97.30;;;;;;5091838;28;20003;-63
2023/06/15 11:03:41;;;;;;;;;;;12.40;97.70;;;;;;5085949;28;19924;-63
2023/06/15 11:06:13;;;;;;;;;;;12.40;97.90;;;;;;5077899;28;20028;-63
2023/06/15 11:08:48;;;;;;;;;;;12.30;97.60;;;;;;5076348;28;19956;-63
2023/06/15 11:11:17;;;;;;;;;;;12.30;97.80;;;;;;5074187;28;19959;-64
2023/06/15 11:13:57;;;;;;;;;;;12.40;98.40;;;;;;5074633;28;19915;-63
2023/06/15 11:16:29;;;;;;;;;;;12.30;98.60;;;;;;5073033;28;19943;-63
2023/06/15 11:19:18;;;;;;;;;;;12.30;98.70;;;;;;5086475;28;19912;-64
2023/06/15 11:21:59;;;;;;;;;;;12.30;98.90;;;;;;5073560;28;19919;-64
2023/06/15 11:24:26;;;;;;;;;;;12.10;99.00;;;;;;5073680;28;19909;-63
2023/06/15 11:26:54;;;;;;;;;;;12.10;99.20;;;;;;5073812;28;20328;-64
2023/06/15 11:29:26;;;;;;;;;;;12.00;99.40;;;;;;5089695;28;19912;-64
2023/06/15 11:31:54;;;;;;;;;;;12.00;99.40;;;;;;5092663;28;20396;-64
2023/06/15 11:34:20;;;;;;;;;;;11.90;99.20;;;;;;5073387;28;19998;-63
2023/06/15 11:36:47;;;;;;;;;;;11.90;99.30;;;;;;5073473;28;19913;-63
2023/06/15 11:39:21;;;;;;;;;;;11.90;99.30;;;;;;5088679;28;19952;-63
2023/06/15 11:41:51;;;;;;;;;;;11.80;99.30;;;;;;5093243;28;20292;-63
2023/06/15 11:44:18;;;;;;;;;;;11.80;99.10;;;;;;5085883;28;19912;-64
2023/06/15 11:46:52;;;;;;;;;;;11.90;99.20;;;;;;5092499;28;19919;-63
2023/06/15 11:49:19;;;;;;;;;;;11.80;99.10;;;;;;5092701;28;19909;-63
2023/06/15 11:51:47;;;;;;;;;;;11.90;99.40;;;;;;5093050;28;20272;-63
2023/06/15 11:54:15;;;;;;;;;;;11.90;99.30;;;;;;5093197;28;20273;-62
2023/06/15 11:56:46;;;;;;;;;;;11.90;99.40;;;;;;5081981;28;19924;-64
2023/06/15 11:59:14;;;;;;;;;;;11.80;99.50;;;;;;5087721;28;19999;-63
2023/06/15 12:01:41;;;;;;;;;;;11.80;99.40;;;;;;5092587;28;20416;-63
2023/06/15 12:04:12;;;;;;;;;;;11.80;99.10;;;;;;5092640;28;19912;-63
2023/06/15 12:06:43;;;;;;;;;;;11.80;99.30;;;;;;5082971;28;19912;-64
2023/06/15 12:09:10;;;;;;;;;;;11.80;99.40;;;;;;5091865;28;20285;-64
2023/06/15 12:11:37;;;;;;;;;;;11.90;99.40;;;;;;5074594;28;19912;-63
2023/06/15 12:14:10;;;;;;;;;;;11.90;99.30;;;;;;5087108;28;19913;-63
2023/06/15 12:16:38;;;;;;;;;;;11.80;99.20;;;;;;5071614;28;20354;-65
2023/06/15 12:19:08;;;;;;;;;;;11.90;99.10;;;;;;5086538;28;19915;-64
2023/06/15 12:21:39;;;;;;;;;;;11.90;99.10;;;;;;5092536;28;19916;-63
2023/06/15 12:24:15;;;;;;;;;;;11.90;99.10;;;;;;5092423;28;19961;-63
2023/06/15 12:26:51;;;;;;;;;;;11.90;99.00;;;;;;5091424;28;19965;-66
2023/06/15 12:29:19;;;;;;;;;;;11.90;99.00;;;;;;5092339;28;19915;-64
2023/06/15 12:31:53;;;;;;;;;;;11.80;99.00;;;;;;5093717;28;20343;-64
2023/06/15 12:34:24;;;;;;;;;;;11.80;99.20;;;;;;5092374;28;19923;-63
2023/06/15 12:36:56;;;;;;;;;;;11.90;99.20;;;;;;5091343;28;19912;-65
2023/06/15 12:39:27;;;;;;;;;;;11.90;99.40;;;;;;5091604;28;19908;-63
2023/06/15 12:42:03;;;;;;;;;;;11.90;99.30;;;;;;5091925;28;19925;-61
2023/06/15 12:44:34;;;;;;;;;;;11.80;99.40;;;;;;5092280;28;20025;-64
2023/06/15 12:47:00;;;;;;;;;;;11.80;99.40;;;;;;5092403;28;20288;-64
2023/06/15 12:49:27;;;;;;;;;;;11.70;99.60;;;;;;5092721;28;19908;-66
2023/06/15 12:51:54;;;;;;;;;;;11.80;99.70;;;;;;5092567;28;19954;-63
2023/06/15 12:54:20;;;;;;;;;;;11.70;99.60;;;;;;5092467;28;19947;-64
2023/06/15 12:56:47;;;;;;;;;;;11.70;99.80;;;;;;5092258;28;19999;-62
2023/06/15 12:59:13;;;;;;;;;;;11.70;99.70;;;;;;5092415;28;19908;-61
2023/06/15 13:01:40;;;;;;;;;;;11.60;99.80;;;;;;5092641;28;19926;-63
2023/06/15 13:04:08;;;;;;;;;;;11.60;99.90;;;;;;5092206;28;19923;-64
2023/06/15 13:06:35;;;;;;;;;;;11.60;99.90;;;;;;5091017;28;20319;-62
2023/06/15 13:09:01;;;;;;;;;;;11.50;99.90;;;;;;5091537;28;19915;-63
2023/06/15 13:11:28;;;;;;;;;;;11.50;99.90;;;;;;5090321;28;19919;-63
2023/06/15 13:13:55;;;;;;;;;;;11.50;99.90;;;;;;5092376;28;19908;-63
2023/06/15 13:16:21;;;;;;;;;;;11.50;99.90;;;;;;5092110;28;19912;-64
2023/06/15 13:18:48;;;;;;;;;;;11.40;99.90;;;;;;5092394;28;19908;-65
2023/06/15 13:21:15;;;;;;;;;;;11.40;99.90;;;;;;5092457;28;20337;-64
2023/06/15 13:23:41;;;;;;;;;;;11.30;99.90;;;;;;5092226;28;19959;-64
2023/06/15 13:26:08;;;;;;;;;;;11.30;99.90;;;;;;5092018;28;20000;-63
2023/06/15 13:28:35;;;;;;;;;;;11.20;99.90;;;;;;5092116;28;20444;-63
2023/06/15 13:31:01;;;;;;;;;;;11.10;99.90;;;;;;5092234;28;19995;-64
2023/06/15 13:33:28;;;;;;;;;;;11.10;99.90;;;;;;5091834;28;19908;-63
2023/06/15 13:35:57;;;;;;;;;;;11.00;99.90;;;;;;5091614;28;19912;-63
2023/06/15 13:38:23;;;;;;;;;;;11.00;99.90;;;;;;5092030;28;20383;-64
2023/06/15 13:40:50;;;;;;;;;;;10.90;99.90;;;;;;5092246;28;19912;-63
2023/06/15 13:43:17;;;;;;;;;;;10.90;99.90;;;;;;5092249;28;19920;-64
2023/06/15 13:45:43;;;;;;;;;;;10.80;99.90;;;;;;5091747;28;19915;-63
2023/06/15 13:48:10;;;;;;;;;;;10.80;99.90;;;;;;5091929;28;19916;-63
2023/06/15 13:50:36;;;;;;;;;;;10.70;99.90;;;;;;5095429;28;19908;-63
2023/06/15 13:53:03;;;;;;;;;;;10.70;99.90;;;;;;5095737;28;19908;-63
2023/06/15 13:55:30;;;;;;;;;;;10.70;99.90;;;;;;5077457;28;19908;-64
2023/06/15 13:57:56;;;;;;;;;;;10.60;99.90;;;;;;5085952;28;19920;-64
2023/06/15 14:00:23;;;;;;;;;;;10.60;99.90;;;;;;5094236;28;19908;-63
2023/06/15 14:02:50;;;;;;;;;;;10.50;99.90;;;;;;5095094;28;19969;-63
2023/06/15 14:05:17;;;;;;;;;;;10.60;99.90;;;;;;5081234;28;20377;-61
2023/06/15 14:07:43;;;;;;;;;;;10.50;99.90;;;;;;5086648;28;19912;-63
2023/06/15 14:10:10;;;;;;;;;;;10.60;99.90;;;;;;5094973;28;19927;-63
2023/06/15 14:12:37;;;;;;;;;;;10.60;99.90;;;;;;5075110;28;19916;-63
2023/06/15 14:15:06;;;;;;;;;;;10.60;99.90;;;;;;5074833;28;19912;-64
2023/06/15 14:17:32;;;;;;;;;;;10.60;99.90;;;;;;5074439;28;19915;-64
2023/06/15 14:19:59;;;;;;;;;;;10.50;99.90;;;;;;5074057;28;19920;-65